createdAt,value
2022-12-09T00:01:42.536Z,20.97
2022-12-09T00:04:10.699Z,18.43
2022-12-09T00:06:38.807Z,21.27
2022-12-09T00:09:07.117Z,21.07
2022-12-09T00:11:34.958Z,18.47
2022-12-09T00:14:03.207Z,20.73
2022-12-09T00:16:31.692Z,20.20
2022-12-09T00:19:01.055Z,18.03
2022-12-09T00:21:29.767Z,22.07
2022-12-09T00:23:59.259Z,21.37
2022-12-09T00:26:28.057Z,18.27
2022-12-09T00:28:56.141Z,18.27
2022-12-09T00:31:26.103Z,16.50
2022-12-09T00:33:57.574Z,20.83
2022-12-09T00:36:27.218Z,20.50
2022-12-09T00:38:55.557Z,18.57
2022-12-09T00:41:23.289Z,19.50
2022-12-09T00:43:51.471Z,21.07
2022-12-09T00:46:19.706Z,17.47
2022-12-09T00:48:48.204Z,19.57
2022-12-09T00:51:17.506Z,19.00
2022-12-09T00:53:47.529Z,18.37
2022-12-09T00:56:15.888Z,18.30
2022-12-09T00:58:44.515Z,16.60
2022-12-09T01:01:12.499Z,20.60
2022-12-09T01:03:40.531Z,15.13
2022-12-09T01:06:09.661Z,19.80
2022-12-09T01:08:39.344Z,17.20
2022-12-09T01:11:13.888Z,15.37
2022-12-09T01:13:42.364Z,18.13
2022-12-09T01:16:15.033Z,17.10
2022-12-09T01:18:42.877Z,17.30
2022-12-09T01:21:10.774Z,20.77
2022-12-09T01:23:41.803Z,20.17
2022-12-09T01:26:10.208Z,18.37
2022-12-09T01:28:40.504Z,20.50
2022-12-09T01:31:10.396Z,17.53
2022-12-09T01:33:38.348Z,17.57
2022-12-09T01:36:07.302Z,18.87
2022-12-09T01:38:35.217Z,21.23
2022-12-09T01:41:03.323Z,18.27
2022-12-09T01:43:31.915Z,18.03
2022-12-09T01:46:01.667Z,17.43
2022-12-09T01:48:31.050Z,17.50
2022-12-09T01:51:02.328Z,23.03
2022-12-09T01:53:32.255Z,18.10
2022-12-09T01:56:01.584Z,19.73
2022-12-09T01:58:30.354Z,17.37
2022-12-09T02:00:58.527Z,18.47
2022-12-09T02:03:29.583Z,20.07
2022-12-09T02:05:58.373Z,19.60
2022-12-09T02:08:26.612Z,23.57
2022-12-09T02:10:58.502Z,22.10
2022-12-09T02:13:29.329Z,20.43
2022-12-09T02:15:59.662Z,18.77
2022-12-09T02:18:33.834Z,20.73
2022-12-09T02:21:03.090Z,29.87
2022-12-09T02:23:36.002Z,23.77
2022-12-09T02:26:10.737Z,17.63
2022-12-09T02:28:48.861Z,21.53
2022-12-09T02:31:23.099Z,22.47
2022-12-09T02:34:09.766Z,24.17
2022-12-09T02:36:43.195Z,23.30
2022-12-09T02:39:11.733Z,21.43
2022-12-09T02:41:41.830Z,21.37
2022-12-09T02:44:13.134Z,20.20
2022-12-09T02:46:43.393Z,18.77
2022-12-09T02:49:13.511Z,20.47
2022-12-09T02:51:43.651Z,19.10
2022-12-09T02:54:13.193Z,25.30
2022-12-09T02:56:42.915Z,20.97
2022-12-09T02:59:11.361Z,23.93
2022-12-09T03:01:43.100Z,20.97
2022-12-09T03:04:12.757Z,25.33
2022-12-09T03:06:43.283Z,21.03
2022-12-09T03:09:15.961Z,26.83
2022-12-09T03:11:44.952Z,23.93
2022-12-09T03:14:14.769Z,25.27
2022-12-09T03:16:45.596Z,24.23
2022-12-09T03:19:15.917Z,25.93
2022-12-09T03:21:45.392Z,20.07
2022-12-09T03:24:16.565Z,17.03
2022-12-09T03:26:45.156Z,18.47
2022-12-09T03:29:15.539Z,26.53
2022-12-09T03:31:44.360Z,21.87
2022-12-09T03:34:15.042Z,20.67
2022-12-09T03:36:45.518Z,23.93
2022-12-09T03:39:16.163Z,21.20
2022-12-09T03:41:46.958Z,23.43
2022-12-09T03:44:19.318Z,21.23
2022-12-09T03:46:47.861Z,25.33
2022-12-09T03:49:16.156Z,18.10
2022-12-09T03:51:46.212Z,24.20
2022-12-09T03:54:18.354Z,23.40
2022-12-09T03:56:47.468Z,18.07
2022-12-09T03:59:16.387Z,21.63
2022-12-09T04:01:45.538Z,19.90
2022-12-09T04:04:13.921Z,22.67
2022-12-09T04:06:41.786Z,25.20
2022-12-09T04:09:12.149Z,17.17
2022-12-09T04:11:41.396Z,22.13
2022-12-09T04:14:15.089Z,22.53
2022-12-09T04:16:43.841Z,22.67
2022-12-09T04:19:12.001Z,17.50
2022-12-09T04:21:40.442Z,14.97
2022-12-09T04:24:08.875Z,25.23
2022-12-09T04:26:37.410Z,18.10
2022-12-09T04:29:06.969Z,26.87
2022-12-09T04:31:35.270Z,23.20
2022-12-09T04:34:08.962Z,34.20
2022-12-09T04:36:37.921Z,36.30
2022-12-09T04:39:06.304Z,29.43
2022-12-09T04:41:34.409Z,28.80
2022-12-09T04:44:02.518Z,28.23
2022-12-09T04:46:31.803Z,30.30
2022-12-09T04:48:59.932Z,24.33
2022-12-09T04:51:29.615Z,28.57
2022-12-09T04:53:59.457Z,26.73
2022-12-09T04:56:27.233Z,23.80
2022-12-09T04:58:55.667Z,23.83
2022-12-09T05:01:30.116Z,28.20
2022-12-09T05:04:00.601Z,25.50
2022-12-09T05:06:29.391Z,26.07
2022-12-09T05:08:58.032Z,24.30
2022-12-09T05:11:26.256Z,26.90
2022-12-09T05:13:54.757Z,24.10
2022-12-09T05:16:23.271Z,22.57
2022-12-09T05:18:51.562Z,24.53
2022-12-09T05:21:22.483Z,25.50
2022-12-09T05:23:52.277Z,28.37
2022-12-09T05:26:21.458Z,27.60
2022-12-09T05:28:53.699Z,28.57
2022-12-09T05:31:23.058Z,26.40
2022-12-09T05:33:52.351Z,30.57
2022-12-09T05:36:22.953Z,32.63
2022-12-09T05:38:51.449Z,31.83
2022-12-09T05:41:20.413Z,28.23
2022-12-09T05:43:48.955Z,29.37
2022-12-09T05:46:17.522Z,38.43
2022-12-09T05:48:46.862Z,46.07
2022-12-09T05:51:17.480Z,48.13
2022-12-09T05:53:47.023Z,46.43
2022-12-09T05:56:16.450Z,51.80
2022-12-09T05:58:46.269Z,44.60
2022-12-09T06:01:16.774Z,42.13
2022-12-09T06:03:45.726Z,39.13
2022-12-09T06:06:15.961Z,41.97
2022-12-09T06:08:45.178Z,40.43
2022-12-09T06:11:16.342Z,32.90
2022-12-09T06:13:44.225Z,34.03
2022-12-09T06:16:14.632Z,35.53
2022-12-09T06:18:42.762Z,48.07
2022-12-09T06:21:12.109Z,26.37
2022-12-09T06:23:41.861Z,35.40
2022-12-09T06:26:16.133Z,33.37
2022-12-09T06:28:46.277Z,32.27
2022-12-09T06:31:14.740Z,36.90
2022-12-09T06:33:59.642Z,35.03
2022-12-09T06:36:29.104Z,42.67
2022-12-09T06:39:00.388Z,40.93
2022-12-09T06:41:31.134Z,40.83
2022-12-09T06:44:01.424Z,55.57
2022-12-09T06:46:29.850Z,42.57
2022-12-09T06:48:58.579Z,48.67
2022-12-09T06:51:27.507Z,52.50
2022-12-09T06:53:57.267Z,53.13
2022-12-09T06:56:26.176Z,47.30
2022-12-09T06:58:54.195Z,54.80
2022-12-09T07:01:25.238Z,53.60
2022-12-09T07:03:55.720Z,59.77
2022-12-09T07:06:26.778Z,59.40
2022-12-09T07:08:55.584Z,54.10
2022-12-09T07:11:25.632Z,46.53
2022-12-09T07:13:54.157Z,45.17
2022-12-09T07:16:23.949Z,40.57
2022-12-09T07:18:52.001Z,55.60
2022-12-09T07:21:22.783Z,46.27
2022-12-09T07:23:50.655Z,34.97
2022-12-09T07:26:19.234Z,40.00
2022-12-09T07:28:50.192Z,42.77
2022-12-09T07:31:20.265Z,37.13
2022-12-09T07:33:50.140Z,48.27
2022-12-09T07:36:21.241Z,43.67
2022-12-09T07:38:51.593Z,38.57
2022-12-09T07:41:20.435Z,44.50
2022-12-09T07:43:49.797Z,37.33
2022-12-09T07:46:19.179Z,40.00
2022-12-09T07:48:48.291Z,36.93
2022-12-09T07:51:18.615Z,46.80
2022-12-09T07:53:46.890Z,36.03
2022-12-09T07:56:15.828Z,52.03
2022-12-09T07:58:45.213Z,39.67
2022-12-09T08:01:14.275Z,47.03
2022-12-09T08:03:42.581Z,38.57
2022-12-09T08:06:13.766Z,37.70
2022-12-09T08:08:43.623Z,37.50
2022-12-09T08:11:13.761Z,35.07
2022-12-09T08:13:43.154Z,38.80
2022-12-09T08:16:12.731Z,60.23
2022-12-09T08:18:41.304Z,39.03
2022-12-09T08:21:11.053Z,36.00
2022-12-09T08:23:40.300Z,47.43
2022-12-09T08:26:09.819Z,39.00
2022-12-09T08:28:38.879Z,44.07
2022-12-09T08:31:10.557Z,43.97
2022-12-09T08:33:39.093Z,39.00
2022-12-09T08:36:11.019Z,60.60
2022-12-09T08:38:43.454Z,65.60
2022-12-09T08:41:14.899Z,76.27
2022-12-09T08:43:43.776Z,63.23
2022-12-09T08:46:12.014Z,57.57
2022-12-09T08:48:41.007Z,58.37
2022-12-09T08:51:10.711Z,63.03
2022-12-09T08:53:39.047Z,66.60
2022-12-09T08:56:11.718Z,61.47
2022-12-09T08:58:41.498Z,63.73
2022-12-09T09:01:09.946Z,61.17
2022-12-09T09:03:39.221Z,55.60
2022-12-09T09:06:10.697Z,62.63
2022-12-09T09:08:40.093Z,62.70
2022-12-09T09:11:12.333Z,52.77
2022-12-09T09:13:42.852Z,53.67
2022-12-09T09:16:12.431Z,53.03
2022-12-09T09:18:41.196Z,51.43
2022-12-09T09:21:09.921Z,41.57
2022-12-09T09:23:38.238Z,46.93
2022-12-09T09:26:06.445Z,42.90
2022-12-09T09:28:36.133Z,44.93
2022-12-09T09:31:07.559Z,45.97
2022-12-09T09:33:36.379Z,35.10
2022-12-09T09:36:10.238Z,41.17
2022-12-09T09:38:39.410Z,49.50
2022-12-09T09:41:10.126Z,47.60
2022-12-09T09:43:40.231Z,42.37
2022-12-09T09:46:16.079Z,40.83
2022-12-09T09:48:44.797Z,39.77
2022-12-09T09:51:15.911Z,45.03
2022-12-09T09:53:43.759Z,39.97
2022-12-09T09:56:19.072Z,46.60
2022-12-09T09:58:50.448Z,48.23
2022-12-09T10:01:21.071Z,44.17
2022-12-09T10:03:54.038Z,39.47
2022-12-09T10:06:29.013Z,38.27
2022-12-09T10:08:59.518Z,36.60
2022-12-09T10:11:30.730Z,43.00
2022-12-09T10:14:02.169Z,39.23
2022-12-09T10:16:36.812Z,44.30
2022-12-09T10:19:09.328Z,36.47
2022-12-09T10:21:38.815Z,35.07
2022-12-09T10:24:17.452Z,36.53
2022-12-09T10:26:47.071Z,37.37
2022-12-09T10:29:18.703Z,33.23
2022-12-09T10:31:48.560Z,37.60
2022-12-09T10:34:16.980Z,35.63
2022-12-09T10:36:46.276Z,35.77
2022-12-09T10:39:17.157Z,39.73
2022-12-09T10:42:04.713Z,39.80
2022-12-09T10:44:33.545Z,37.67
2022-12-09T10:47:04.139Z,40.20
2022-12-09T10:49:32.994Z,48.47
2022-12-09T10:52:01.592Z,54.80
2022-12-09T10:54:34.303Z,39.47
2022-12-09T10:57:04.370Z,44.27
2022-12-09T10:59:33.371Z,35.77
2022-12-09T11:02:03.976Z,36.53
2022-12-09T11:04:33.744Z,34.07
2022-12-09T11:07:05.412Z,32.33
2022-12-09T11:09:35.096Z,35.93
2022-12-09T11:12:05.675Z,31.57
2022-12-09T11:14:35.866Z,34.97
2022-12-09T11:17:15.585Z,29.27
2022-12-09T11:19:44.664Z,36.87
2022-12-09T11:22:24.016Z,31.97
2022-12-09T11:24:54.613Z,34.37
2022-12-09T11:27:30.438Z,31.60
2022-12-09T11:30:12.689Z,29.70
2022-12-09T11:32:55.602Z,37.13
2022-12-09T11:35:27.776Z,45.83
2022-12-09T11:37:55.998Z,27.03
2022-12-09T11:40:24.765Z,24.00
2022-12-09T11:42:53.651Z,36.70
2022-12-09T11:45:25.460Z,29.17
2022-12-09T11:50:51.506Z,33.50
2022-12-09T11:53:26.374Z,35.40
2022-12-09T11:55:55.340Z,30.17
2022-12-09T11:58:24.697Z,33.03
2022-12-09T12:00:56.950Z,36.73
2022-12-09T12:03:28.278Z,34.37
2022-12-09T12:05:58.775Z,45.53
2022-12-09T12:08:28.676Z,34.87
2022-12-09T12:10:58.003Z,34.73
2022-12-09T12:13:29.632Z,34.03
2022-12-09T12:16:01.804Z,38.87
2022-12-09T12:18:33.574Z,54.93
2022-12-09T12:21:12.682Z,46.90
2022-12-09T12:23:51.496Z,37.40
2022-12-09T12:26:21.614Z,29.33
2022-12-09T12:29:07.674Z,40.60
2022-12-09T12:31:51.976Z,39.07
2022-12-09T12:34:25.653Z,44.20
2022-12-09T12:36:59.448Z,34.57
2022-12-09T12:39:35.953Z,40.80
2022-12-09T12:42:09.936Z,35.77
2022-12-09T12:45:02.168Z,39.07
2022-12-09T12:47:34.316Z,30.47
2022-12-09T12:50:17.521Z,30.23
2022-12-09T12:52:56.954Z,34.60
2022-12-09T12:55:31.577Z,32.00
2022-12-09T12:58:01.414Z,26.30
2022-12-09T13:00:33.636Z,29.33
2022-12-09T13:03:09.476Z,49.90
2022-12-09T13:05:39.683Z,43.60
2022-12-09T13:08:11.275Z,56.37
2022-12-09T13:10:43.690Z,34.17
2022-12-09T13:13:17.094Z,29.40
2022-12-09T13:15:46.592Z,32.63
2022-12-09T13:18:19.366Z,32.07
2022-12-09T13:20:52.687Z,31.53
2022-12-09T13:23:24.931Z,33.00
2022-12-09T13:25:57.537Z,27.70
2022-12-09T13:28:28.441Z,36.00
2022-12-09T13:30:58.423Z,47.53
2022-12-09T13:33:30.273Z,40.07
2022-12-09T13:36:06.202Z,40.90
2022-12-09T13:38:36.864Z,37.37
2022-12-09T13:41:19.871Z,31.80
2022-12-09T13:43:48.080Z,38.97
2022-12-09T13:46:22.055Z,52.73
2022-12-09T13:48:50.135Z,46.83
2022-12-09T13:51:19.518Z,28.87
2022-12-09T13:53:48.836Z,27.07
2022-12-09T13:56:27.652Z,27.33
2022-12-09T13:59:15.588Z,20.20
2022-12-09T14:01:46.153Z,28.37
2022-12-09T14:04:16.377Z,28.43
2022-12-09T14:06:53.169Z,28.13
2022-12-09T14:09:26.155Z,29.90
2022-12-09T14:11:54.357Z,34.40
2022-12-09T14:14:40.970Z,27.70
2022-12-09T14:17:18.797Z,33.80
2022-12-09T14:19:51.813Z,27.23
2022-12-09T14:22:37.159Z,46.57
2022-12-09T14:25:24.061Z,26.20
2022-12-09T14:28:06.575Z,35.67
2022-12-09T14:30:51.333Z,37.20
2022-12-09T14:33:22.730Z,39.60
2022-12-09T14:35:52.059Z,32.53
2022-12-09T14:38:24.415Z,39.77
2022-12-09T14:41:01.448Z,39.60
2022-12-09T14:43:37.140Z,47.60
2022-12-09T14:46:07.817Z,41.33
2022-12-09T14:48:36.937Z,37.33
2022-12-09T14:51:10.069Z,41.33
2022-12-09T14:53:39.627Z,55.03
2022-12-09T14:56:07.983Z,61.20
2022-12-09T14:58:35.689Z,56.90
2022-12-09T15:01:05.480Z,34.83
2022-12-09T15:03:39.440Z,39.43
2022-12-09T15:06:13.909Z,53.17
2022-12-09T15:08:43.273Z,41.67
2022-12-09T15:11:13.565Z,23.10
2022-12-09T15:13:42.664Z,31.77
2022-12-09T15:16:11.421Z,29.23
2022-12-09T15:18:42.399Z,38.27
2022-12-09T15:21:10.387Z,35.80
2022-12-09T15:23:39.488Z,32.87
2022-12-09T15:26:09.949Z,19.53
2022-12-09T15:28:38.679Z,24.67
2022-12-09T15:31:08.350Z,27.67
2022-12-09T15:33:40.880Z,32.17
2022-12-09T15:36:10.255Z,22.43
2022-12-09T15:38:40.928Z,34.33
2022-12-09T15:41:28.377Z,32.10
2022-12-09T15:43:57.375Z,25.80
2022-12-09T15:46:26.299Z,28.20
2022-12-09T15:48:57.545Z,24.37
2022-12-09T15:51:26.932Z,29.03
2022-12-09T15:53:57.541Z,28.23
2022-12-09T15:56:28.795Z,35.93
2022-12-09T15:58:59.037Z,26.70
2022-12-09T16:01:29.310Z,27.60
2022-12-09T16:03:59.448Z,31.73
2022-12-09T16:06:29.322Z,27.73
2022-12-09T16:08:57.006Z,26.47
2022-12-09T16:11:39.823Z,32.10
2022-12-09T16:14:08.046Z,22.43
2022-12-09T16:16:41.592Z,20.67
2022-12-09T16:19:24.776Z,20.23
2022-12-09T16:21:54.085Z,29.77
2022-12-09T16:24:22.963Z,30.30
2022-12-09T16:26:53.208Z,30.77
2022-12-09T16:29:26.432Z,19.83
2022-12-09T16:32:13.372Z,22.70
2022-12-09T16:34:41.229Z,16.53
2022-12-09T16:37:23.375Z,20.00
2022-12-09T16:39:51.545Z,14.77
2022-12-09T16:42:25.505Z,26.27
2022-12-09T16:44:53.969Z,20.93
2022-12-09T16:47:25.197Z,22.47
2022-12-09T16:49:52.975Z,20.50
2022-12-09T16:52:23.056Z,22.27
2022-12-09T16:54:51.523Z,27.80
2022-12-09T16:57:20.634Z,25.57
2022-12-09T16:59:51.078Z,24.43
2022-12-09T17:02:21.120Z,22.80
2022-12-09T17:04:49.440Z,20.40
2022-12-09T17:07:17.227Z,23.63
2022-12-09T17:09:44.879Z,21.47
2022-12-09T17:12:12.876Z,19.93
2022-12-09T17:14:40.808Z,24.20
2022-12-09T17:17:09.931Z,35.47
2022-12-09T17:19:37.813Z,19.10
2022-12-09T17:22:05.495Z,17.70
2022-12-09T17:24:33.273Z,23.57
2022-12-09T17:27:01.423Z,22.17
2022-12-09T17:29:29.197Z,20.90
2022-12-09T17:31:57.348Z,19.80
2022-12-09T17:34:26.724Z,18.67
2022-12-09T17:36:55.240Z,23.00
2022-12-09T17:39:24.833Z,25.33
2022-12-09T17:41:53.005Z,23.53
2022-12-09T17:44:21.575Z,24.47
2022-12-09T17:46:50.638Z,29.77
2022-12-09T17:49:19.423Z,21.50
2022-12-09T17:51:48.498Z,18.63
2022-12-09T17:54:16.505Z,26.37
2022-12-09T17:56:44.489Z,25.87
2022-12-09T17:59:16.202Z,23.97
2022-12-09T18:01:46.412Z,28.70
2022-12-09T18:04:15.446Z,25.83
2022-12-09T18:06:44.312Z,46.03
2022-12-09T18:09:16.201Z,24.73
2022-12-09T18:11:44.469Z,35.17
2022-12-09T18:14:12.270Z,25.57
2022-12-09T18:16:40.322Z,24.00
2022-12-09T18:19:10.539Z,34.17
2022-12-09T18:21:38.235Z,41.83
2022-12-09T18:24:06.263Z,25.10
2022-12-09T18:26:41.295Z,31.57
2022-12-09T18:29:10.867Z,18.20
2022-12-09T18:31:39.635Z,23.00
2022-12-09T18:34:08.159Z,24.13
2022-12-09T18:36:35.955Z,31.70
2022-12-09T18:39:03.957Z,25.60
2022-12-09T18:41:32.775Z,20.50
2022-12-09T18:44:03.073Z,29.50
2022-12-09T18:46:33.095Z,20.67
2022-12-09T18:49:01.479Z,28.77
2022-12-09T18:51:29.696Z,33.17
2022-12-09T18:53:58.107Z,23.03
2022-12-09T18:56:26.541Z,23.13
2022-12-09T18:59:09.952Z,25.30
2022-12-09T19:01:40.811Z,27.47
2022-12-09T19:04:11.890Z,48.70
2022-12-09T19:06:41.142Z,42.10
2022-12-09T19:09:09.595Z,31.83
2022-12-09T19:11:38.075Z,29.80
2022-12-09T19:14:06.572Z,34.57
2022-12-09T19:16:34.595Z,41.13
2022-12-09T19:19:09.116Z,26.17
2022-12-09T19:21:37.095Z,40.87
2022-12-09T19:24:04.886Z,43.10
2022-12-09T19:26:33.409Z,41.13
2022-12-09T19:29:02.401Z,35.60
2022-12-09T19:31:31.260Z,34.60
2022-12-09T19:34:00.349Z,39.27
2022-12-09T19:36:30.755Z,35.40
2022-12-09T19:38:58.600Z,36.50
2022-12-09T19:41:26.285Z,42.63
2022-12-09T19:43:55.548Z,31.00
2022-12-09T19:46:23.345Z,33.53
2022-12-09T19:48:51.060Z,32.53
2022-12-09T19:51:19.115Z,30.13
2022-12-09T19:53:48.704Z,34.70
2022-12-09T19:56:19.585Z,27.50
2022-12-09T19:58:47.899Z,26.10
2022-12-09T20:01:17.091Z,33.53
2022-12-09T20:03:45.788Z,28.33
2022-12-09T20:06:14.972Z,30.63
2022-12-09T20:08:43.551Z,25.17
2022-12-09T20:11:13.981Z,32.77
2022-12-09T20:13:41.649Z,29.30
2022-12-09T20:16:10.518Z,27.23
2022-12-09T20:18:38.770Z,16.67
2022-12-09T20:21:09.421Z,19.13
2022-12-09T20:23:38.115Z,29.77
2022-12-09T20:26:07.445Z,23.17
2022-12-09T20:28:37.381Z,30.20
2022-12-09T20:31:05.464Z,34.93
2022-12-09T20:33:33.516Z,31.13
2022-12-09T20:36:07.611Z,29.63
2022-12-09T20:38:36.323Z,27.53
2022-12-09T20:41:05.243Z,34.23
2022-12-09T20:43:39.514Z,31.70
2022-12-09T20:46:10.261Z,30.63
2022-12-09T20:48:38.519Z,27.27
2022-12-09T20:51:07.359Z,26.67
2022-12-09T20:53:35.387Z,27.53
2022-12-09T20:56:03.529Z,23.70
2022-12-09T20:58:31.515Z,27.83
2022-12-09T21:01:05.454Z,23.53
2022-12-09T21:03:35.223Z,19.63
2022-12-09T21:06:03.864Z,21.80
2022-12-09T21:08:32.181Z,19.40
2022-12-09T21:11:04.670Z,27.17
2022-12-09T21:13:32.369Z,19.73
2022-12-09T21:16:06.998Z,23.43
2022-12-09T21:18:37.268Z,15.93
2022-12-09T21:21:06.254Z,16.63
2022-12-09T21:23:35.627Z,12.87
2022-12-09T21:26:04.107Z,15.00
2022-12-09T21:28:32.146Z,18.63
2022-12-09T21:31:00.275Z,16.83
2022-12-09T21:33:28.508Z,17.87
2022-12-09T21:35:58.068Z,12.97
2022-12-09T21:38:25.752Z,25.00
2022-12-09T21:40:53.948Z,16.67
2022-12-09T21:43:21.877Z,15.03
2022-12-09T21:45:50.206Z,24.77
2022-12-09T21:48:18.512Z,17.37
2022-12-09T21:50:46.242Z,19.63
2022-12-09T21:53:15.532Z,15.03
2022-12-09T21:55:43.664Z,14.20
2022-12-09T21:58:11.634Z,18.43
2022-12-09T22:00:39.751Z,19.00
2022-12-09T22:03:07.853Z,21.73
2022-12-09T22:05:36.027Z,17.00
2022-12-09T22:08:03.905Z,16.03
2022-12-09T22:10:33.205Z,25.83
2022-12-09T22:13:01.027Z,36.47
2022-12-09T22:15:28.664Z,18.17
2022-12-09T22:17:56.303Z,25.53
2022-12-09T22:23:13.578Z,17.17
2022-12-09T22:25:42.735Z,20.73
2022-12-09T22:28:12.108Z,17.40
2022-12-09T22:30:39.862Z,14.60
2022-12-09T22:33:07.642Z,22.07
2022-12-09T22:35:35.356Z,19.97
2022-12-09T22:38:08.350Z,22.83
2022-12-09T22:40:39.677Z,21.13
2022-12-09T22:43:08.932Z,20.17
2022-12-09T22:45:38.090Z,24.53
2022-12-09T22:48:06.375Z,22.23
2022-12-09T22:50:36.376Z,19.50
2022-12-09T22:53:04.109Z,23.37
2022-12-09T22:55:34.321Z,22.50
2022-12-09T22:58:02.189Z,23.17
2022-12-09T23:00:31.671Z,23.87
2022-12-09T23:02:59.488Z,22.73
2022-12-09T23:05:33.204Z,32.47
2022-12-09T23:08:03.023Z,23.77
2022-12-09T23:10:31.040Z,24.40
2022-12-09T23:12:58.705Z,16.80
2022-12-09T23:15:27.495Z,24.27
2022-12-09T23:17:56.964Z,31.33
2022-12-09T23:20:25.226Z,16.40
2022-12-09T23:22:53.056Z,18.33
2022-12-09T23:25:20.827Z,23.83
2022-12-09T23:27:48.725Z,17.03
2022-12-09T23:30:16.485Z,12.30
2022-12-09T23:32:44.209Z,22.77
2022-12-09T23:35:13.359Z,24.77
2022-12-09T23:37:42.123Z,21.20
2022-12-09T23:40:11.240Z,16.53
2022-12-09T23:42:38.931Z,15.83
2022-12-09T23:45:07.486Z,17.43
2022-12-09T23:47:35.243Z,23.03
2022-12-09T23:50:03.497Z,18.00
2022-12-09T23:52:32.635Z,23.73
2022-12-09T23:55:04.303Z,20.90
2022-12-09T23:57:32.418Z,20.53
